默认 日期 大小 文件数 浏览量 最新下载 xml
09-08磁力链接相关资源由用户搜索指令自动获取,结果来源于网络,本站不存储任何资料,亦不承担任何责任,请于24小时内删除,搜索到19502个磁力,显示前4000条数据,用时29ms。
    {"netgirl.16.09.08.eliza.and.bell.1080p[N1C].mp4": 1935731487}
创建时间: 2018-11-04 23:11:56 大小:1.8 GB 文件数量:1 热度:21 最近下载:2025-09-06 21:09:03
    {"Tracklist.txt": 1508, "Armin van Buuren - A State Of Trance 876 (09.08.2018).mp3": 288691369}
创建时间: 2018-11-04 23:31:17 大小:275.32 MB 文件数量:2 热度:14 最近下载:2025-04-17 12:58:02
    {"md5.md5": 1197, "gd1991-09-08d1t01.shn": 9524597, "gd1991-09-08d1t02.shn": 43063741 ... , "gd1991-09-08d1t03.shn": 31276693, "gd1991-09-08d1t04.shn": 49364005 ... .shn": 43777513, "gd1991-09-08d3t05.shn": 27294941, "gd1991-09-08.75772.txt": 6833}
创建时间: 2018-11-05 00:49:14 大小:953.83 MB 文件数量:23 热度:35 最近下载:2025-10-18 02:02:29
    {"RARBG.txt": 30, "Tushy.17.09.08.Alex.Grey.XXX.SD.MP4-KLEENEX.mp4": 401089536}
创建时间: 2018-11-05 01:36:59 大小:382.51 MB 文件数量:2 热度:53 最近下载:2025-08-15 14:08:02
    {"Sample": {"iak-jimslip-140908-sample.mp4": 68673157}, "RARBG.com.txt": 34, "iak-jimslip-140908.mp4": 1524809621, "iak-jimslip-140908.nfo": 5147}
创建时间: 2018-11-05 02:04:49 大小:1.48 GB 文件数量:4 热度:43 最近下载:2025-10-04 21:16:04
    {"RARBG.com.txt": 34, "faq.15.09.08.lita.black.mp4": 1985974254, "faq.15.09.08.lita.black.nfo": 5193}
创建时间: 2018-11-05 02:14:32 大小:1.85 GB 文件数量:3 热度:26 最近下载:2025-05-21 10:47:02
    {"Torrent Downloaded From ArenaBG.ch.txt": 0, "[DirtyMasseur] Ashly Anderson - Oil Up Ashly (09.08.2018) rq.mp4": 510645396}
创建时间: 2018-11-05 02:37:26 大小:486.99 MB 文件数量:2 热度:31 最近下载:2025-08-15 00:55:02
    {"RARBG.txt": 30, "Killergram.17.09.08.Samantha.Stockings.A.Cock.Cum.Fiesta.XXX.SD.MP4-KLEENEX.mp4": 172980679}
创建时间: 2018-11-05 05:19:28 大小:164.97 MB 文件数量:2 热度:17 最近下载:2025-08-04 11:35:02
    {"crack": {"run_bfcf0.exe": 78852}, "Readme!!.url": 1160, "Torrent downloaded from H33t.to.txt": 44, "Garrys Mod v14.09.08 Full +AutoUpdate.exe": 25734210}
创建时间: 2018-11-05 06:14:03 大小:24.62 MB 文件数量:4 热度:14 最近下载:2025-03-25 02:15:01
    {"RARBG.com.txt": 34, "tatlov-lg090805mih.nfo": 3944, "tatlov-lg090805mih.wmv": 80679009}
创建时间: 2018-11-05 07:26:04 大小:76.95 MB 文件数量:3 热度:14 最近下载:2025-01-12 01:42:01
    {"SexBossPOV.14.09.08.Abigail.XXX.HR.MP4-KTR.mp4": 3851785745}
创建时间: 2018-11-05 08:15:51 大小:3.59 GB 文件数量:1 热度:24 最近下载:2025-08-02 16:35:04
    {"dmb2018-09-08.txt": 1351, "dmb2018-09-08t01.flac": 5672374, "dmb2018-09-08t02.flac": ... flac": 32341405, "dmb2018-09-08t05.flac": 25019080, "dmb2018-09-08t06.flac": 105070803 ... ": 24812025, "dmb2018-09-08.mk4.flac16.ffp": 1232, "dmb2018-09-08.mk4.flac16.md5 ...
创建时间: 2018-11-05 09:19:58 大小:845.55 MB 文件数量:25 热度:13 最近下载:2025-01-12 01:41:01
    {"RARBG.txt": 30, "premiumbukkake.17.09.08.ria.sunn.round.2.mp4": 1420129024, "premiumbukkake.17.09.08.ria.sunn.round.2.nfo": 489}
创建时间: 2018-11-05 11:39:22 大小:1.32 GB 文件数量:3 热度:72 最近下载:2025-09-26 02:19:02
    {"RARBG.txt": 30, "file_id.diz": 78, "gagball.nfo": 245, "averie4001.jpg": 2142046, "averie4002.jpg": 2205861, "averie4003.jpg": 1934551, "averie4004.jpg": 2364573, "averie4005.jpg": 2310136, "averie4006.jpg": 2265353, "averie4007.jpg": 2418664, " ...
创建时间: 2018-11-05 12:11:35 大小:279.37 MB 文件数量:99 热度:25 最近下载:2025-08-02 16:25:06
    {"RARBG.txt": 30, "natashastarr.17.09.08.natasha.starr.feeling.those.fingers.go.deep.mp4": 1221195099, "natashastarr.17.09.08.natasha.starr.feeling.those.fingers.go.deep.nfo": 5218}
创建时间: 2018-11-05 15:43:50 大小:1.14 GB 文件数量:3 热度:61 最近下载:2025-08-19 22:49:01
    {"Sample": {"oraloverdose.16.09.08.saya.song-sample.mp4": 101604620}, "RARBG.com.txt": 34, "oraloverdose.16.09.08.saya.song.mp4": 2035411448, "oraloverdose.16.09.08.saya.song.nfo": 5188}
创建时间: 2018-11-05 16:10:41 大小:1.99 GB 文件数量:4 热度:59 最近下载:2025-08-22 14:12:02
    ... -cable-09-08-2018-talion.nfo": 17671, "00-tiesto_-_club_life_597__incl_iceleak_guestmix-cable-09-08-2018 ... -talion.sfv": 87, "01-tiesto_-_club_life_597__incl_iceleak_guestmix-cable-09-08-2018 ...
创建时间: 2018-11-05 16:13:20 大小:212.23 MB 文件数量:3 热度:12 最近下载:2025-01-12 01:40:06
    ... -09-08 t13 Drums.flac": 39112875, "gd87-09-08 t14 Space.flac": 20680769, "gd87-09-08 ... t08 Tuning.flac": 4771019, "gd87-09-08 ... ": 38532701, "gd87-09-08 t12 Terrapin Station.flac": 63904304, "gd87-09-08 t19 Black ...
创建时间: 2018-11-05 17:45:01 大小:743.89 MB 文件数量:23 热度:13 最近下载:2025-04-28 17:32:02
    {"RARBG.com.txt": 34, "mgbf.16.09.08.sheridan.love.mp4": 2861006958, "mgbf.16.09.08.sheridan.love.nfo": 5216}
创建时间: 2018-11-05 23:39:36 大小:2.66 GB 文件数量:3 热度:78 最近下载:2025-04-11 20:36:02
    {"Sample": {"paycppv.sample.wmv": 78590184}, "payiso.nfo": 3533, "6605hd-1.wmv": 298370940, "RARBG.com.txt": 34}
创建时间: 2018-11-06 01:56:16 大小:359.5 MB 文件数量:4 热度:21 最近下载:2025-01-12 01:49:06